Time;durP1;ratioP1;P1;durP2;ratioP2;P2;SDS_P1;SDS_P2;PMS_P1;PMS_P2;Temp;Humidity;BMP_temperature;BMP_pressure;BME280_temperature;BME280_humidity;BME280_pressure;Samples;Min_cycle;Max_cycle;Signal;HPM_P1;HPM_P2
2023/05/30 00:00:03;;;;;;;13.90;4.45;;;11.30;99.90;;;;;;5066387;28;20071;-74
2023/05/30 00:02:28;;;;;;;12.02;4.45;;;11.20;99.90;;;;;;5080781;28;20404;-74
2023/05/30 00:04:55;;;;;;;10.90;4.30;;;11.20;99.90;;;;;;5099910;28;20043;-74
2023/05/30 00:07:20;;;;;;;11.82;4.45;;;11.20;99.90;;;;;;5078831;28;20032;-73
2023/05/30 00:09:46;;;;;;;14.70;5.03;;;11.30;99.90;;;;;;5083558;28;20092;-73
2023/05/30 00:12:12;;;;;;;9.82;4.13;;;11.30;99.90;;;;;;5077984;28;20051;-73
2023/05/30 00:14:39;;;;;;;15.65;4.70;;;11.30;99.90;;;;;;5077628;28;20028;-73
2023/05/30 00:17:05;;;;;;;16.75;5.55;;;11.20;99.90;;;;;;5081165;28;20549;-73
2023/05/30 00:19:31;;;;;;;15.23;4.35;;;11.30;99.90;;;;;;5096953;28;20038;-72
2023/05/30 00:21:57;;;;;;;13.80;4.72;;;11.30;99.90;;;;;;5081806;28;20120;-72
2023/05/30 00:24:25;;;;;;;14.77;6.18;;;11.30;99.90;;;;;;5078649;28;20032;-72
2023/05/30 00:26:51;;;;;;;13.45;5.15;;;11.20;99.90;;;;;;5097952;28;20676;-72
2023/05/30 00:29:17;;;;;;;11.35;4.22;;;11.20;99.90;;;;;;5078973;28;20068;-73
2023/05/30 00:31:43;;;;;;;11.77;4.68;;;11.20;99.90;;;;;;5098969;28;20139;-73
2023/05/30 00:34:08;;;;;;;12.27;4.68;;;11.20;99.90;;;;;;5065549;28;20040;-73
2023/05/30 00:36:35;;;;;;;15.65;5.43;;;11.20;99.90;;;;;;5100280;27;20606;-72
2023/05/30 00:39:00;;;;;;;13.75;5.10;;;11.30;99.90;;;;;;5081802;27;20433;-73
2023/05/30 00:41:27;;;;;;;12.00;5.18;;;11.30;99.90;;;;;;5089541;27;20045;-73
2023/05/30 00:43:53;;;;;;;12.88;5.38;;;11.20;99.90;;;;;;5075722;27;20046;-73
2023/05/30 00:46:20;;;;;;;15.18;5.22;;;11.20;99.90;;;;;;5090322;27;20146;-74
2023/05/30 00:48:46;;;;;;;17.58;5.70;;;11.20;99.90;;;;;;5087507;27;20046;-74
2023/05/30 00:51:12;;;;;;;12.68;5.45;;;11.20;99.90;;;;;;5054928;27;20205;-73
2023/05/30 00:53:41;;;;;;;11.18;5.50;;;11.20;99.90;;;;;;5069449;27;20606;-70
2023/05/30 00:56:10;;;;;;;11.27;5.22;;;11.20;99.90;;;;;;5055464;27;20055;-73
2023/05/30 00:58:38;;;;;;;11.65;5.00;;;11.20;99.90;;;;;;5087031;27;21504;-73
2023/05/30 01:01:04;;;;;;;13.15;5.65;;;11.20;99.90;;;;;;5067029;27;20135;-74
2023/05/30 01:03:32;;;;;;;11.68;5.00;;;11.20;99.90;;;;;;5038109;27;20449;-74
2023/05/30 01:06:06;;;;;;;10.93;4.70;;;11.20;99.90;;;;;;5069517;27;20065;-75
2023/05/30 01:08:32;;;;;;;13.55;5.05;;;11.20;99.90;;;;;;5067645;27;20051;-72
2023/05/30 01:11:09;;;;;;;13.95;5.10;;;11.10;99.90;;;;;;5084480;27;20735;-75
2023/05/30 01:13:47;;;;;;;13.27;5.25;;;11.10;99.90;;;;;;5064849;27;20477;-74
2023/05/30 01:16:19;;;;;;;12.27;4.70;;;11.20;99.90;;;;;;5085572;27;20042;-74
2023/05/30 01:19:20;;;;;;;14.88;4.97;;;11.20;99.90;;;;;;5081327;27;20066;-74
2023/05/30 01:21:46;;;;;;;13.77;5.00;;;11.20;99.90;;;;;;5052706;27;20266;-73
2023/05/30 01:25:04;;;;;;;12.23;4.30;;;11.10;99.90;;;;;;5083805;27;20050;-72
2023/05/30 01:28:02;;;;;;;11.40;4.68;;;11.20;99.90;;;;;;5065699;27;20519;-74
2023/05/30 01:30:32;;;;;;;16.45;4.88;;;11.10;99.90;;;;;;5084717;27;20082;-73
2023/05/30 01:32:59;;;;;;;10.27;4.28;;;11.10;99.90;;;;;;5103803;27;20513;-74
2023/05/30 01:35:25;;;;;;;12.73;4.68;;;11.20;99.90;;;;;;5097339;27;20156;-75
2023/05/30 01:37:51;;;;;;;9.55;4.45;;;11.20;99.90;;;;;;5098355;27;20131;-72
2023/05/30 01:40:21;;;;;;;11.80;4.63;;;11.10;99.90;;;;;;5095055;27;20070;-75
2023/05/30 01:42:51;;;;;;;10.55;4.75;;;11.10;99.90;;;;;;5100205;27;20531;-73
2023/05/30 01:45:23;;;;;;;11.43;4.85;;;11.10;99.90;;;;;;5089940;27;21477;-72
2023/05/30 01:48:00;;;;;;;14.57;4.93;;;11.10;99.90;;;;;;5097947;27;20059;-73
2023/05/30 01:50:41;;;;;;;11.10;4.50;;;11.10;99.90;;;;;;5096483;27;20055;-73
2023/05/30 01:53:14;;;;;;;11.60;4.70;;;11.10;99.90;;;;;;5098054;27;20122;-74
2023/05/30 01:55:42;;;;;;;11.13;5.25;;;11.10;99.90;;;;;;5094852;27;20079;-74
2023/05/30 01:58:09;;;;;;;16.55;5.35;;;11.10;99.90;;;;;;5078366;27;20043;-73
2023/05/30 02:00:36;;;;;;;14.02;5.13;;;11.10;99.90;;;;;;5095002;27;20086;-73
2023/05/30 02:03:02;;;;;;;11.32;4.55;;;11.10;99.90;;;;;;5072014;27;20038;-73
2023/05/30 02:05:27;;;;;;;11.07;4.63;;;11.10;99.90;;;;;;5062808;27;20576;-74
2023/05/30 02:07:53;;;;;;;18.05;5.07;;;11.10;99.90;;;;;;5100599;27;20055;-74
2023/05/30 02:10:19;;;;;;;11.27;4.20;;;11.10;99.90;;;;;;5081521;28;20990;-73
2023/05/30 02:12:45;;;;;;;13.52;4.97;;;11.10;99.90;;;;;;5081823;27;20106;-72
2023/05/30 02:15:13;;;;;;;12.73;4.75;;;11.10;99.90;;;;;;5097766;27;20043;-73
2023/05/30 02:17:39;;;;;;;10.85;4.28;;;11.10;99.90;;;;;;5098810;27;20039;-73
2023/05/30 02:20:05;;;;;;;11.80;4.40;;;11.10;99.90;;;;;;5100594;27;20067;-73
2023/05/30 02:22:31;;;;;;;11.10;4.88;;;11.10;99.90;;;;;;5081529;28;20046;-74
2023/05/30 02:24:57;;;;;;;9.60;4.45;;;11.00;99.90;;;;;;5097918;27;20043;-74
2023/05/30 02:27:24;;;;;;;13.77;4.70;;;11.00;99.90;;;;;;5063918;28;20039;-74
2023/05/30 02:29:50;;;;;;;10.60;3.65;;;11.00;99.90;;;;;;5080373;28;20095;-73
2023/05/30 02:32:16;;;;;;;11.77;4.50;;;11.00;99.90;;;;;;5047215;28;20086;-75
2023/05/30 02:34:42;;;;;;;14.13;5.10;;;11.00;99.90;;;;;;5095368;27;20043;-73
2023/05/30 02:37:08;;;;;;;10.00;4.50;;;11.00;99.90;;;;;;5075813;27;20585;-74
2023/05/30 02:39:33;;;;;;;12.45;4.55;;;11.00;99.90;;;;;;5078114;28;20086;-74
2023/05/30 02:42:00;;;;;;;11.65;4.43;;;11.00;99.90;;;;;;5058508;28;20196;-75
2023/05/30 02:44:25;;;;;;;13.38;4.90;;;11.00;99.90;;;;;;5046879;28;20072;-74
2023/05/30 02:46:51;;;;;;;10.90;4.97;;;11.00;99.90;;;;;;5096936;28;20411;-74
2023/05/30 02:49:18;;;;;;;11.52;4.40;;;11.00;99.90;;;;;;5077292;28;20053;-73
2023/05/30 02:51:44;;;;;;;12.57;5.40;;;11.00;99.90;;;;;;5062152;28;20051;-73
2023/05/30 02:54:13;;;;;;;12.15;4.88;;;11.00;99.90;;;;;;5076759;28;20523;-73
2023/05/30 02:56:39;;;;;;;14.63;4.60;;;11.00;99.90;;;;;;5074208;28;20050;-73
2023/05/30 02:59:05;;;;;;;12.52;4.25;;;11.00;99.90;;;;;;5078025;28;20087;-73
2023/05/30 03:01:31;;;;;;;12.65;5.55;;;11.00;99.90;;;;;;5059604;28;21298;-73
2023/05/30 03:03:56;;;;;;;10.35;4.53;;;11.00;99.90;;;;;;5089410;28;20052;-72
2023/05/30 03:06:24;;;;;;;13.25;4.68;;;11.00;99.90;;;;;;5060751;28;20051;-74
2023/05/30 03:08:58;;;;;;;12.88;5.28;;;11.00;99.90;;;;;;5095209;28;20134;-73
2023/05/30 03:11:25;;;;;;;11.98;4.85;;;11.00;99.90;;;;;;5074773;28;20130;-74
2023/05/30 03:13:51;;;;;;;12.95;5.05;;;11.00;99.90;;;;;;5089758;28;20039;-73
2023/05/30 03:16:17;;;;;;;10.32;5.60;;;11.00;99.90;;;;;;5059188;28;20043;-73
2023/05/30 03:18:42;;;;;;;13.20;5.68;;;11.00;99.90;;;;;;5074659;27;20340;-74
2023/05/30 03:21:11;;;;;;;14.55;5.32;;;11.00;99.90;;;;;;5100957;27;20162;-72
2023/05/30 03:23:37;;;;;;;12.52;5.03;;;11.00;99.90;;;;;;5078810;27;20066;-73
2023/05/30 03:26:03;;;;;;;14.23;5.25;;;11.00;99.90;;;;;;5065582;27;20715;-73
2023/05/30 03:28:33;;;;;;;11.80;4.72;;;11.00;99.90;;;;;;5096062;27;20100;-73
2023/05/30 03:31:03;;;;;;;12.15;5.10;;;11.00;99.90;;;;;;5065473;27;20552;-74
2023/05/30 03:33:32;;;;;;;13.52;5.70;;;11.10;99.90;;;;;;5061861;27;20555;-74
2023/05/30 03:35:58;;;;;;;14.13;5.10;;;11.00;99.90;;;;;;5077132;27;20039;-73
2023/05/30 03:38:24;;;;;;;15.48;5.47;;;11.00;99.90;;;;;;5097067;27;20055;-75
2023/05/30 03:40:50;;;;;;;15.73;5.88;;;11.10;99.90;;;;;;5064135;27;20043;-75
2023/05/30 03:43:15;;;;;;;14.48;5.55;;;11.10;99.90;;;;;;5097278;27;20659;-76
2023/05/30 03:45:42;;;;;;;13.18;5.00;;;11.10;99.90;;;;;;5063758;27;20554;-74
2023/05/30 03:48:08;;;;;;;11.05;5.25;;;11.10;99.90;;;;;;5079897;27;20047;-74
2023/05/30 03:50:37;;;;;;;14.02;5.15;;;11.10;99.90;;;;;;5077542;27;21079;-74
2023/05/30 03:53:03;;;;;;;12.88;5.22;;;11.10;99.90;;;;;;5061610;27;20525;-74
2023/05/30 03:55:29;;;;;;;10.90;5.40;;;11.10;99.90;;;;;;5061769;27;20091;-73
2023/05/30 03:57:54;;;;;;;17.02;5.85;;;11.10;99.90;;;;;;5062890;27;20043;-74
2023/05/30 04:00:20;;;;;;;12.48;5.20;;;11.10;99.90;;;;;;5064786;27;20215;-73
2023/05/30 04:02:46;;;;;;;14.43;5.78;;;11.10;99.90;;;;;;5052665;27;20051;-72
2023/05/30 04:05:12;;;;;;;15.60;5.47;;;11.20;99.90;;;;;;5099233;27;20074;-74
2023/05/30 04:07:38;;;;;;;12.68;4.68;;;11.20;99.90;;;;;;5097857;27;20210;-73
2023/05/30 04:10:04;;;;;;;13.07;5.05;;;11.20;99.90;;;;;;5101935;27;20626;-75
2023/05/30 04:12:30;;;;;;;12.63;4.97;;;11.20;99.90;;;;;;5067034;27;20134;-75
2023/05/30 04:14:56;;;;;;;15.02;5.38;;;11.20;99.90;;;;;;5083412;27;20043;-76
2023/05/30 04:17:22;;;;;;;13.75;5.50;;;11.20;99.90;;;;;;5098080;27;20089;-75
2023/05/30 04:19:47;;;;;;;12.63;6.07;;;11.20;99.90;;;;;;5083100;27;20043;-73
2023/05/30 04:22:13;;;;;;;14.50;5.35;;;11.20;99.90;;;;;;5098559;27;20046;-74
2023/05/30 04:24:39;;;;;;;14.63;5.93;;;11.30;99.90;;;;;;5080328;27;20359;-73
2023/05/30 04:27:05;;;;;;;11.93;5.00;;;11.30;99.90;;;;;;5083531;27;20104;-73
2023/05/30 04:29:32;;;;;;;12.82;4.90;;;11.30;99.90;;;;;;5097996;27;20051;-73
2023/05/30 04:31:58;;;;;;;14.52;5.05;;;11.30;99.90;;;;;;5099133;27;20142;-73
2023/05/30 04:34:24;;;;;;;12.98;4.45;;;11.40;99.90;;;;;;5097001;27;20059;-75
2023/05/30 04:36:53;;;;;;;12.18;5.57;;;11.40;99.90;;;;;;5081037;27;20059;-75
2023/05/30 04:39:20;;;;;;;13.30;5.30;;;11.40;99.90;;;;;;5100007;27;20051;-72
2023/05/30 04:41:46;;;;;;;12.00;5.35;;;11.40;99.90;;;;;;5066500;27;20039;-73
2023/05/30 04:44:11;;;;;;;14.43;5.35;;;11.40;99.90;;;;;;5080107;27;20050;-75
2023/05/30 04:46:37;;;;;;;13.02;4.82;;;11.40;99.90;;;;;;5078437;27;20111;-74
2023/05/30 04:49:06;;;;;;;16.00;5.20;;;11.40;99.90;;;;;;5101849;27;20050;-72
2023/05/30 04:51:32;;;;;;;14.98;4.88;;;11.40;99.90;;;;;;5102528;27;20595;-74
2023/05/30 04:53:58;;;;;;;11.70;5.00;;;11.50;99.90;;;;;;5084855;27;20069;-73
2023/05/30 04:56:26;;;;;;;11.88;5.22;;;11.50;99.90;;;;;;5081082;27;20043;-73
2023/05/30 04:58:52;;;;;;;14.60;5.10;;;11.50;99.90;;;;;;5099469;27;20570;-74
2023/05/30 05:01:18;;;;;;;14.35;5.00;;;11.50;99.90;;;;;;5075189;27;20131;-73
2023/05/30 05:03:45;;;;;;;12.10;4.55;;;11.50;99.90;;;;;;5098414;27;20047;-72
2023/05/30 05:06:11;;;;;;;14.07;4.82;;;11.60;99.90;;;;;;5078956;27;20070;-76
2023/05/30 05:08:37;;;;;;;12.70;5.07;;;11.60;99.90;;;;;;5081632;27;20197;-75
2023/05/30 05:11:05;;;;;;;14.98;5.45;;;11.60;99.90;;;;;;5082496;27;20047;-75
2023/05/30 05:13:31;;;;;;;14.27;5.00;;;11.60;99.90;;;;;;5077659;27;20074;-74
2023/05/30 05:15:57;;;;;;;13.32;5.28;;;11.60;99.90;;;;;;5083503;27;20452;-73
2023/05/30 05:18:24;;;;;;;15.00;5.72;;;11.70;99.90;;;;;;5097895;27;20038;-75
2023/05/30 05:20:50;;;;;;;13.27;4.88;;;11.70;99.90;;;;;;5083440;27;20043;-74
2023/05/30 05:23:16;;;;;;;12.75;5.05;;;11.70;99.90;;;;;;5066091;27;20169;-74
2023/05/30 05:25:42;;;;;;;11.25;4.65;;;11.70;99.90;;;;;;5077941;27;20140;-74
2023/05/30 05:28:08;;;;;;;14.75;5.28;;;11.80;99.90;;;;;;5077844;27;20376;-74
2023/05/30 05:30:34;;;;;;;11.68;5.45;;;11.80;99.90;;;;;;5082707;27;20043;-73
2023/05/30 05:33:00;;;;;;;14.82;5.30;;;11.90;99.90;;;;;;5081703;27;20043;-73
2023/05/30 05:35:26;;;;;;;13.50;4.72;;;11.90;99.90;;;;;;5097348;27;20135;-73
2023/05/30 05:37:52;;;;;;;12.32;4.63;;;11.90;99.90;;;;;;5079426;27;20120;-75
2023/05/30 05:40:19;;;;;;;13.73;4.93;;;12.00;99.90;;;;;;5081289;27;20477;-75
2023/05/30 05:42:45;;;;;;;13.82;4.43;;;12.00;99.90;;;;;;5079989;27;20070;-74
2023/05/30 05:45:11;;;;;;;16.02;5.18;;;12.00;99.90;;;;;;5060423;27;20711;-75
2023/05/30 05:47:37;;;;;;;12.85;4.55;;;12.00;99.90;;;;;;5094772;27;20726;-75
2023/05/30 05:50:04;;;;;;;13.93;4.82;;;12.00;99.90;;;;;;5080903;27;20047;-74
2023/05/30 05:52:33;;;;;;;14.63;4.70;;;12.10;99.90;;;;;;5076851;27;20039;-75
2023/05/30 05:55:02;;;;;;;13.68;4.50;;;12.10;99.90;;;;;;5111588;27;20494;-75
2023/05/30 05:57:28;;;;;;;15.68;4.65;;;12.00;99.90;;;;;;5094703;27;20047;-73
2023/05/30 05:59:53;;;;;;;11.32;4.28;;;12.00;99.90;;;;;;5081481;27;20062;-76
2023/05/30 06:02:19;;;;;;;11.10;3.95;;;12.10;99.90;;;;;;5078886;27;20104;-79
2023/05/30 06:04:46;;;;;;;12.55;4.50;;;12.10;99.90;;;;;;5077352;27;20889;-78
2023/05/30 06:07:13;;;;;;;11.57;4.55;;;12.10;99.90;;;;;;5089851;27;20568;-78
2023/05/30 11:28:52;;;;;;;1.65;1.30;;;14.00;99.90;;;;;;5101441;27;20914;-73
2023/05/30 11:31:19;;;;;;;4.35;1.67;;;14.60;99.90;;;;;;5056924;28;20052;-74
2023/05/30 11:33:50;;;;;;;2.95;1.42;;;14.50;99.90;;;;;;5079843;28;20175;-74
2023/05/30 11:36:16;;;;;;;2.72;1.92;;;14.50;99.90;;;;;;5050177;28;20056;-74
2023/05/30 11:38:48;;;;;;;3.03;2.00;;;14.50;99.90;;;;;;5060441;28;20032;-73
2023/05/30 11:41:15;;;;;;;3.50;1.75;;;14.50;99.90;;;;;;5059112;28;20396;-74
2023/05/30 11:43:44;;;;;;;2.78;1.70;;;14.50;99.90;;;;;;5061837;28;20056;-74
2023/05/30 11:46:11;;;;;;;2.80;1.90;;;14.50;99.90;;;;;;5066614;28;20040;-73
2023/05/30 11:48:36;;;;;;;3.60;1.60;;;14.40;99.90;;;;;;5081008;28;20044;-73
2023/05/30 11:51:06;;;;;;;3.72;1.70;;;14.50;99.90;;;;;;5044426;28;20098;-73
2023/05/30 11:53:32;;;;;;;;;;;14.50;99.90;;;;;;5064070;28;20388;-73
2023/05/30 11:55:59;;;;;;;3.83;2.15;;;14.60;99.90;;;;;;5077043;28;20083;-73
2023/05/30 11:58:25;;;;;;;2.67;1.98;;;14.50;99.90;;;;;;5075078;28;20109;-73
2023/05/30 12:00:51;;;;;;;2.83;1.83;;;14.50;99.90;;;;;;5064144;28;20075;-73
2023/05/30 12:03:17;;;;;;;2.58;1.92;;;14.40;99.90;;;;;;5078466;28;20058;-73
2023/05/30 12:05:44;;;;;;;2.53;1.55;;;14.40;99.90;;;;;;5081721;28;20028;-73
2023/05/30 12:08:18;;;;;;;2.45;1.67;;;14.40;99.90;;;;;;5072196;28;20048;-73
2023/05/30 12:10:44;;;;;;;3.85;1.77;;;14.30;99.90;;;;;;5081226;28;20244;-73
2023/05/30 12:13:10;;;;;;;2.65;1.60;;;14.30;99.90;;;;;;5094545;28;20048;-76
2023/05/30 12:15:37;;;;;;;2.83;1.52;;;14.30;99.90;;;;;;5077601;28;20055;-73
2023/05/30 12:18:04;;;;;;;2.08;1.40;;;14.30;99.90;;;;;;5088249;28;20066;-73
2023/05/30 12:20:30;;;;;;;4.20;1.50;;;14.30;99.90;;;;;;5063026;28;20140;-74
2023/05/30 12:22:56;;;;;;;2.60;1.50;;;14.30;99.90;;;;;;5051399;28;20410;-74
2023/05/30 12:25:29;;;;;;;2.45;1.30;;;14.30;99.90;;;;;;5053489;28;20044;-74
2023/05/30 12:27:56;;;;;;;2.63;1.10;;;14.30;99.90;;;;;;5091502;28;20044;-74
2023/05/30 12:30:22;;;;;;;2.40;1.30;;;14.40;99.90;;;;;;5044693;28;20064;-74
2023/05/30 12:32:48;;;;;;;2.47;1.15;;;14.50;99.90;;;;;;5058359;28;20455;-74
2023/05/30 12:35:18;;;;;;;2.90;1.50;;;14.50;99.90;;;;;;5056433;28;20056;-75
2023/05/30 12:37:44;;;;;;;2.80;1.73;;;14.60;99.90;;;;;;5047913;28;20080;-74
2023/05/30 12:40:10;;;;;;;2.05;1.20;;;14.70;99.90;;;;;;5057883;28;20339;-74
2023/05/30 12:42:43;;;;;;;3.38;1.40;;;14.70;99.90;;;;;;5061025;28;20087;-74
2023/05/30 12:45:14;;;;;;;;;;;14.70;99.90;;;;;;5040713;28;20544;-74
2023/05/30 12:57:47;;;;;;;4.45;1.80;;;14.50;99.90;;;;;;5277945;22;20050;-73
2023/05/30 13:00:13;;;;;;;2.28;1.42;;;14.50;99.90;;;;;;5051264;28;20710;-73
2023/05/30 13:02:39;;;;;;;2.80;1.55;;;14.50;99.90;;;;;;5036176;28;20072;-71
2023/05/30 13:05:06;;;;;;;1.95;1.35;;;14.60;99.90;;;;;;5031482;28;20072;-71
2023/05/30 13:07:31;;;;;;;2.55;1.60;;;14.60;99.90;;;;;;5065639;28;20273;-70
2023/05/30 13:09:57;;;;;;;2.17;1.50;;;14.60;99.90;;;;;;5051913;28;20593;-71
2023/05/30 13:12:23;;;;;;;3.63;1.73;;;14.70;99.90;;;;;;5025369;28;20036;-70
2023/05/30 13:14:48;;;;;;;3.22;1.70;;;14.70;99.90;;;;;;5048232;28;20115;-70
2023/05/30 13:17:14;;;;;;;3.80;1.80;;;14.80;99.90;;;;;;5055883;28;20043;-73
2023/05/30 13:19:40;;;;;;;3.35;1.75;;;14.80;99.90;;;;;;5058907;28;20035;-73
2023/05/30 13:22:08;;;;;;;3.85;1.70;;;14.80;99.90;;;;;;5054036;28;20039;-73
2023/05/30 13:24:34;;;;;;;2.10;1.52;;;14.80;99.90;;;;;;5047680;28;20033;-73
2023/05/30 13:27:00;;;;;;;2.35;1.40;;;14.80;99.90;;;;;;5058862;28;20040;-73
2023/05/30 13:29:26;;;;;;;3.00;1.95;;;14.80;99.90;;;;;;5043813;28;20052;-73
2023/05/30 13:31:52;;;;;;;3.25;1.92;;;14.90;99.90;;;;;;5029975;28;20075;-74
2023/05/30 13:34:18;;;;;;;2.97;1.80;;;14.80;99.90;;;;;;5059423;28;20092;-74
2023/05/30 13:36:43;;;;;;;2.90;1.75;;;14.80;99.90;;;;;;5062784;28;20044;-74
2023/05/30 13:39:09;;;;;;;2.00;1.30;;;14.80;99.90;;;;;;5059931;28;20040;-73
2023/05/30 13:41:36;;;;;;;4.72;1.65;;;14.70;99.90;;;;;;5051933;28;20040;-73
2023/05/30 13:44:02;;;;;;;3.30;1.45;;;14.60;99.90;;;;;;5062076;28;20408;-74
2023/05/30 13:46:28;;;;;;;3.67;2.03;;;14.60;99.90;;;;;;5079890;28;20075;-73
2023/05/30 13:48:55;;;;;;;2.00;1.50;;;14.60;99.90;;;;;;5053197;28;20086;-73
2023/05/30 13:51:21;;;;;;;3.35;2.10;;;14.60;99.90;;;;;;5067658;28;20044;-73
2023/05/30 13:53:48;;;;;;;2.38;1.50;;;14.60;99.90;;;;;;5045697;28;20039;-74
2023/05/30 13:56:15;;;;;;;2.85;1.38;;;14.60;99.90;;;;;;5073270;28;20064;-73
2023/05/30 13:58:41;;;;;;;2.42;1.58;;;14.70;99.90;;;;;;5033406;28;20039;-73
2023/05/30 14:01:08;;;;;;;1.83;1.40;;;14.70;99.90;;;;;;5026791;28;20146;-73
2023/05/30 14:03:34;;;;;;;4.50;1.50;;;14.70;99.90;;;;;;5064960;28;20063;-74
2023/05/30 14:06:04;;;;;;;5.03;1.40;;;14.60;99.90;;;;;;5018470;28;20072;-73
2023/05/30 14:08:30;;;;;;;;;;;14.70;99.90;;;;;;5066671;28;20040;-73
2023/05/30 14:10:57;;;;;;;2.78;1.50;;;14.70;99.90;;;;;;5077053;28;20007;-73
2023/05/30 14:13:24;;;;;;;2.60;1.50;;;14.70;99.90;;;;;;5049137;28;20508;-72
2023/05/30 14:15:50;;;;;;;2.28;1.42;;;14.80;99.90;;;;;;5031303;28;20430;-72
2023/05/30 14:18:16;;;;;;;2.47;1.60;;;14.90;99.90;;;;;;5050081;28;20046;-72
2023/05/30 14:20:42;;;;;;;2.65;1.55;;;14.80;99.90;;;;;;5045029;28;20119;-73
2023/05/30 14:23:08;;;;;;;3.30;1.60;;;14.90;99.90;;;;;;5018269;28;20053;-72
2023/05/30 14:25:35;;;;;;;2.92;1.80;;;14.90;99.90;;;;;;5054519;28;20307;-72
2023/05/30 14:28:01;;;;;;;3.17;1.80;;;15.00;99.90;;;;;;5059532;28;20040;-72
2023/05/30 14:30:28;;;;;;;2.22;1.77;;;15.00;99.90;;;;;;5052610;28;20040;-73
2023/05/30 14:32:53;;;;;;;3.72;1.77;;;15.00;99.90;;;;;;5051556;28;20119;-73
2023/05/30 14:35:19;;;;;;;2.33;1.60;;;15.10;99.90;;;;;;5044314;28;20127;-72
2023/05/30 14:37:45;;;;;;;2.53;1.80;;;15.10;99.90;;;;;;5053913;28;20474;-72
2023/05/30 14:40:12;;;;;;;2.70;2.05;;;15.10;99.90;;;;;;5049598;28;20102;-72
2023/05/30 14:42:39;;;;;;;2.30;1.63;;;15.10;99.90;;;;;;5038685;28;20049;-72
2023/05/30 14:45:05;;;;;;;4.00;1.80;;;15.10;99.90;;;;;;5045111;28;20138;-72
2023/05/30 14:47:32;;;;;;;3.63;1.92;;;15.20;99.90;;;;;;5051615;28;20503;-72
2023/05/30 14:49:58;;;;;;;4.03;1.80;;;15.20;99.90;;;;;;5062016;28;20072;-72
2023/05/30 14:52:24;;;;;;;3.65;1.92;;;15.20;99.90;;;;;;5039649;28;20434;-72
2023/05/30 14:54:50;;;;;;;2.30;1.90;;;15.20;99.90;;;;;;5066225;28;20064;-72
2023/05/30 14:57:17;;;;;;;2.88;1.85;;;15.20;99.90;;;;;;5065539;28;20090;-72
2023/05/30 14:59:43;;;;;;;4.07;1.63;;;15.20;99.90;;;;;;5052178;28;20085;-72
2023/05/30 15:02:08;;;;;;;2.70;1.90;;;15.20;99.90;;;;;;5016859;28;20095;-72
2023/05/30 15:04:34;;;;;;;3.22;1.50;;;15.20;99.90;;;;;;5019715;28;20044;-73
2023/05/30 15:07:00;;;;;;;2.92;1.80;;;15.20;99.90;;;;;;5038543;28;20044;-72
2023/05/30 15:09:26;;;;;;;3.13;2.00;;;15.10;99.90;;;;;;5015200;28;20053;-72
2023/05/30 15:11:52;;;;;;;2.53;1.60;;;15.10;99.90;;;;;;5016139;28;20409;-72
2023/05/30 15:14:17;;;;;;;3.25;1.77;;;15.10;99.90;;;;;;5030711;28;20099;-72
2023/05/30 15:16:43;;;;;;;4.07;1.50;;;15.10;99.90;;;;;;5045207;28;20037;-72
2023/05/30 15:19:09;;;;;;;3.13;1.67;;;15.10;99.90;;;;;;5039004;28;20045;-72
2023/05/30 15:21:35;;;;;;;2.95;1.60;;;15.20;99.90;;;;;;5030637;28;20569;-73
2023/05/30 15:24:01;;;;;;;3.15;1.70;;;15.20;99.90;;;;;;5013148;28;20041;-72
2023/05/30 15:26:27;;;;;;;2.00;1.40;;;15.20;99.90;;;;;;5029263;28;20033;-72
2023/05/30 15:28:56;;;;;;;1.65;1.42;;;15.20;99.90;;;;;;5017188;28;20037;-72
2023/05/30 15:31:23;;;;;;;3.67;1.70;;;15.20;99.90;;;;;;5037673;28;20622;-73
2023/05/30 15:33:50;;;;;;;1.95;1.55;;;15.20;99.90;;;;;;5014920;28;20103;-71
2023/05/30 15:36:20;;;;;;;2.80;1.80;;;15.10;99.90;;;;;;5049852;28;20071;-70
2023/05/30 15:38:47;;;;;;;3.50;2.08;;;15.20;99.90;;;;;;5029330;28;20037;-71
2023/05/30 15:41:13;;;;;;;2.63;1.67;;;15.20;99.90;;;;;;4997739;28;20102;-71
2023/05/30 15:43:39;;;;;;;3.45;2.00;;;15.20;99.90;;;;;;5007671;28;20471;-71
2023/05/30 15:46:08;;;;;;;4.18;1.90;;;15.20;99.90;;;;;;5031868;28;20128;-71
2023/05/30 15:48:33;;;;;;;2.00;1.40;;;15.20;99.90;;;;;;5038398;28;20048;-70
2023/05/30 15:50:59;;;;;;;2.35;1.65;;;15.20;99.90;;;;;;5036647;28;20044;-70
2023/05/30 15:53:25;;;;;;;2.58;1.67;;;15.20;99.90;;;;;;5026674;28;20423;-70
2023/05/30 15:55:51;;;;;;;3.30;1.60;;;15.10;99.90;;;;;;5016418;28;20047;-71
2023/05/30 15:58:17;;;;;;;2.83;1.60;;;15.20;99.90;;;;;;4993513;28;20487;-71
2023/05/30 16:00:44;;;;;;;2.80;1.50;;;15.10;99.90;;;;;;5034037;28;20127;-70
2023/05/30 16:03:11;;;;;;;2.25;1.50;;;15.10;99.90;;;;;;5072778;28;20476;-70
2023/05/30 16:05:37;;;;;;;2.30;1.88;;;15.10;99.90;;;;;;5051263;28;20047;-70
2023/05/30 16:08:03;;;;;;;3.25;1.63;;;15.10;99.90;;;;;;5086554;28;20434;-70
2023/05/30 16:10:29;;;;;;;3.97;1.95;;;15.10;99.90;;;;;;5051895;28;20044;-71
2023/05/30 16:12:57;;;;;;;2.78;1.80;;;15.20;99.90;;;;;;5077596;28;20050;-70
2023/05/30 16:15:23;;;;;;;3.10;1.60;;;15.20;99.90;;;;;;5052682;28;20060;-71
2023/05/30 16:17:49;;;;;;;1.77;1.50;;;15.10;99.90;;;;;;5051656;28;20036;-71
2023/05/30 16:20:15;;;;;;;3.03;1.77;;;15.20;99.90;;;;;;5053620;28;20127;-71
2023/05/30 16:22:44;;;;;;;2.47;1.60;;;15.10;99.90;;;;;;5035250;28;20435;-71
2023/05/30 16:25:10;;;;;;;3.90;2.03;;;15.10;99.90;;;;;;5071222;28;20040;-71
2023/05/30 16:27:35;;;;;;;2.03;1.73;;;15.10;99.90;;;;;;5083918;28;20511;-71
2023/05/30 16:30:01;;;;;;;3.55;2.30;;;15.10;99.90;;;;;;5068425;28;20240;-71
2023/05/30 16:32:28;;;;;;;4.32;2.55;;;15.10;99.90;;;;;;5065620;28;20040;-72
2023/05/30 16:34:54;;;;;;;2.95;2.40;;;15.00;99.90;;;;;;5044042;28;21579;-71
2023/05/30 16:37:23;;;;;;;5.22;2.42;;;15.00;99.90;;;;;;5063240;28;20131;-71
2023/05/30 16:39:49;;;;;;;4.40;2.60;;;14.90;99.90;;;;;;5043243;28;20036;-71
2023/05/30 16:42:14;;;;;;;3.15;2.20;;;14.90;99.90;;;;;;5046168;28;20592;-71
2023/05/30 16:44:40;;;;;;;4.10;1.90;;;14.90;99.90;;;;;;5051726;28;20423;-71
2023/05/30 16:47:06;;;;;;;5.15;2.53;;;14.90;99.90;;;;;;5049978;28;20085;-71
2023/05/30 16:49:32;;;;;;;3.92;2.42;;;14.80;99.90;;;;;;5047374;28;20048;-70
2023/05/30 16:51:58;;;;;;;4.47;2.60;;;14.80;99.90;;;;;;5063052;28;20075;-71
2023/05/30 16:54:23;;;;;;;4.60;2.35;;;14.80;99.90;;;;;;5060033;28;20499;-70
2023/05/30 16:56:49;;;;;;;4.72;2.20;;;14.90;99.90;;;;;;5050628;28;20032;-71
2023/05/30 16:59:18;;;;;;;3.80;2.20;;;14.90;99.90;;;;;;5054254;28;20700;-71
2023/05/30 17:01:44;;;;;;;4.05;2.25;;;14.90;99.90;;;;;;5073734;28;20052;-71
2023/05/30 17:04:12;;;;;;;3.42;2.47;;;14.80;99.90;;;;;;5057277;28;20050;-70
2023/05/30 17:06:37;;;;;;;4.93;2.50;;;14.90;99.90;;;;;;5055181;28;20101;-70
2023/05/30 17:09:06;;;;;;;4.20;2.30;;;14.80;99.90;;;;;;5068343;28;20028;-70
2023/05/30 17:11:32;;;;;;;3.13;2.00;;;14.80;99.90;;;;;;5056506;28;20043;-70
2023/05/30 17:13:57;;;;;;;3.55;2.30;;;14.80;99.90;;;;;;5066929;28;20097;-70
2023/05/30 17:16:23;;;;;;;5.60;2.35;;;14.80;99.90;;;;;;5079504;28;20064;-70
2023/05/30 17:18:49;;;;;;;4.03;2.40;;;14.80;99.90;;;;;;5049204;28;20044;-70
2023/05/30 17:21:16;;;;;;;4.30;2.25;;;14.80;99.90;;;;;;5070246;28;20048;-71
2023/05/30 17:23:42;;;;;;;4.65;2.17;;;14.80;99.90;;;;;;5064790;28;20518;-71
2023/05/30 17:26:07;;;;;;;3.50;2.13;;;14.80;99.90;;;;;;5064517;28;20187;-70
2023/05/30 17:28:36;;;;;;;6.85;2.10;;;14.80;99.90;;;;;;5057897;28;20052;-70
2023/05/30 17:31:02;;;;;;;3.72;2.25;;;14.80;99.90;;;;;;5035871;28;20044;-70
2023/05/30 17:33:28;;;;;;;4.40;2.10;;;14.80;99.90;;;;;;5077984;28;20055;-70
2023/05/30 17:35:54;;;;;;;3.83;2.08;;;14.80;99.90;;;;;;5055291;28;20508;-70
2023/05/30 17:38:20;;;;;;;4.70;2.33;;;14.90;99.90;;;;;;5051035;28;20071;-70
2023/05/30 17:40:46;;;;;;;4.07;1.90;;;14.80;99.90;;;;;;5049131;28;20544;-70
2023/05/30 17:43:12;;;;;;;3.35;2.10;;;14.80;99.90;;;;;;5077360;28;20040;-70
2023/05/30 17:45:40;;;;;;;4.22;2.20;;;14.80;99.90;;;;;;5065364;28;20050;-70
2023/05/30 17:48:10;;;;;;;4.18;2.45;;;14.80;99.90;;;;;;5044399;28;20127;-70
2023/05/30 17:50:37;;;;;;;4.20;2.47;;;14.80;99.90;;;;;;5074171;28;20067;-69
2023/05/30 17:53:03;;;;;;;4.25;2.10;;;14.80;99.90;;;;;;5035435;28;20302;-70
2023/05/30 17:55:28;;;;;;;5.25;2.28;;;14.80;99.90;;;;;;5068873;28;20044;-70
2023/05/30 17:57:54;;;;;;;5.32;2.53;;;14.80;99.90;;;;;;5060182;28;20048;-70
2023/05/30 18:00:20;;;;;;;5.90;2.67;;;14.80;99.90;;;;;;5062596;28;20040;-70
2023/05/30 18:02:47;;;;;;;4.88;3.05;;;14.80;99.90;;;;;;5072340;28;20056;-69
2023/05/30 18:05:15;;;;;;;5.55;2.78;;;14.70;99.90;;;;;;5063727;28;20411;-70
2023/05/30 18:07:41;;;;;;;6.10;2.80;;;14.70;99.90;;;;;;5059454;28;20106;-70
2023/05/30 18:10:08;;;;;;;4.28;2.92;;;14.70;99.90;;;;;;5062950;28;21458;-70